Time;durP1;ratioP1;P1;durP2;ratioP2;P2;SDS_P1;SDS_P2;PMS_P1;PMS_P2;Temp;Humidity;BMP_temperature;BMP_pressure;BME280_temperature;BME280_humidity;BME280_pressure;Samples;Min_cycle;Max_cycle;Signal;HPM_P1;HPM_P2
2023/10/29 06:46:00;;;;;;;2.47;0.63;;;;;;;;;;5100311;27;20408;-78
2023/10/29 06:48:26;;;;;;;3.30;0.68;;;;;;;;;;5104865;28;20032;-78
2023/10/29 06:50:52;;;;;;;3.45;0.70;;;;;;;;;;5106472;28;20051;-77
2023/10/29 06:53:18;;;;;;;3.72;0.73;;;;;;;;;;5104570;28;20101;-80
2023/10/29 06:55:44;;;;;;;5.00;0.55;;;;;;;;;;5105111;28;20058;-78
2023/10/29 06:58:11;;;;;;;5.53;0.80;;;;;;;;;;5104527;28;20441;-77
2023/10/29 07:00:37;;;;;;;3.50;0.80;;;;;;;;;;5103594;28;20119;-77
2023/10/29 07:03:03;;;;;;;3.78;0.57;;;;;;;;;;5108282;28;20059;-78
2023/10/29 07:05:29;;;;;;;3.20;1.08;;;;;;;;;;5103376;28;20445;-78
2023/10/29 07:07:55;;;;;;;3.22;0.85;;;;;;;;;;5103960;28;20119;-78
2023/10/29 07:10:21;;;;;;;6.40;0.90;;;;;;;;;;5104982;28;20503;-78
2023/10/29 07:12:47;;;;;;;5.20;0.70;;;;;;;;;;5104307;28;20036;-77
2023/10/29 07:15:13;;;;;;;5.25;0.75;;;;;;;;;;5106030;28;20073;-77
2023/10/29 07:17:39;;;;;;;6.30;0.63;;;;;;;;;;5103600;28;20123;-77
2023/10/29 07:20:05;;;;;;;5.18;0.82;;;;;;;;;;5103724;28;20031;-79
2023/10/29 07:22:31;;;;;;;1.88;0.60;;;;;;;;;;5102658;28;20035;-78
2023/10/29 07:24:58;;;;;;;3.33;0.90;;;;;;;;;;5104760;28;20093;-80
2023/10/29 07:27:24;;;;;;;3.13;0.88;;;;;;;;;;5104365;28;20346;-78
2023/10/29 07:29:50;;;;;;;7.25;0.73;;;;;;;;;;5102981;28;20064;-78
2023/10/29 07:32:16;;;;;;;2.92;0.98;;;;;;;;;;5102893;28;20035;-77
2023/10/29 07:34:42;;;;;;;3.20;0.68;;;;;;;;;;5098852;28;20040;-78
2023/10/29 07:37:09;;;;;;;5.57;0.70;;;;;;;;;;5103360;28;20067;-78
2023/10/29 07:39:35;;;;;;;6.05;0.80;;;;;;;;;;5104791;28;20038;-78
2023/10/29 07:42:01;;;;;;;3.25;0.73;;;;;;;;;;5105513;28;20028;-84
2023/10/29 07:44:27;;;;;;;4.97;1.02;;;;;;;;;;5104746;28;20150;-81
2023/10/29 07:46:53;;;;;;;6.63;1.95;;;;;;;;;;5103052;28;20107;-88
2023/10/29 07:49:19;;;;;;;7.70;1.00;;;;;;;;;;5105355;28;20486;-91
2023/10/29 07:51:45;;;;;;;3.90;1.02;;;;;;;;;;5105611;28;20035;-82
2023/10/29 07:54:12;;;;;;;5.25;1.75;;;;;;;;;;5104750;28;20027;-82
2023/10/29 07:56:38;;;;;;;10.23;2.15;;;;;;;;;;5095516;28;20090;-82
2023/10/29 07:59:04;;;;;;;4.00;1.15;;;;;;;;;;5091543;28;20457;-79
2023/10/29 08:01:30;;;;;;;4.47;0.93;;;;;;;;;;5088679;28;20027;-81
2023/10/29 08:03:57;;;;;;;2.47;0.75;;;;;;;;;;5089140;28;20119;-84
2023/10/29 08:06:23;;;;;;;2.72;0.90;;;;;;;;;;5088963;28;20058;-83
2023/10/29 08:08:49;;;;;;;9.50;1.50;;;;;;;;;;5090137;28;20466;-84
2023/10/29 08:11:21;;;;;;;6.45;0.85;;;;;;;;;;5089641;28;20125;-82
2023/10/29 08:13:48;;;;;;;;;;;13.00;99.90;;;;;;5091017;28;20040;-84
2023/10/29 08:16:14;;;;;;;8.77;1.00;;;;;;;;;;5090889;28;20346;-82
2023/10/29 08:18:41;;;;;;;4.25;0.90;;;;;;;;;;5069460;28;20090;-82
2023/10/29 08:21:07;;;;;;;8.05;2.70;;;;;;;;;;5090173;28;20024;-83
2023/10/29 08:23:33;;;;;;;7.00;1.13;;;;;;;;;;5084570;28;20054;-79
2023/10/29 08:25:58;;;;;;;11.30;0.93;;;;;;;;;;5074398;28;20493;-84
2023/10/29 08:28:27;;;;;;;5.80;1.20;;;;;;;;;;5084432;28;20092;-83
2023/10/29 08:30:53;;;;;;;6.03;1.30;;;;;;;;;;5070841;28;20025;-80
2023/10/29 08:33:19;;;;;;;7.95;1.27;;;;;;;;;;5092422;28;20107;-82
2023/10/29 08:35:45;;;;;;;8.52;1.52;;;;;;;;;;5074295;28;20036;-80
2023/10/29 08:38:11;;;;;;;7.75;1.88;;;;;;;;;;5074483;28;20431;-83
2023/10/29 08:40:38;;;;;;;7.00;1.60;;;;;;;;;;5082268;28;20027;-82
2023/10/29 08:43:05;;;;;;;7.53;0.85;;;;;;;;;;5087867;28;20040;-77
2023/10/29 08:45:31;;;;;;;7.43;1.20;;;;;;;;;;5077234;28;20127;-77
2023/10/29 08:47:57;;;;;;;5.95;1.20;;;;;;;;;;5090216;28;20024;-80
2023/10/29 08:50:23;;;;;;;3.85;1.02;;;;;;;;;;5080671;28;20149;-77
2023/10/29 08:52:49;;;;;;;5.25;0.93;;;;;;;;;;5099753;27;20099;-79
2023/10/29 08:55:15;;;;;;;8.23;1.27;;;;;;;;;;5082627;28;20042;-85
2023/10/29 08:57:41;;;;;;;9.18;1.08;;;;;;;;;;5086928;28;20032;-77
2023/10/29 09:00:08;;;;;;;6.22;1.05;;;;;;;;;;5075849;28;20036;-75
2023/10/29 09:02:34;;;;;;;5.55;0.88;;;;;;;;;;5080406;28;20059;-76
2023/10/29 09:05:02;;;;;;;4.65;1.23;;;;;;;;;;5081182;28;20032;-79
2023/10/29 09:07:28;;;;;;;7.55;1.23;;;;;;;;;;5054263;28;20044;-75
2023/10/29 09:09:54;;;;;;;3.67;1.00;;;;;;;;;;5079642;28;20461;-74
2023/10/29 09:12:23;;;;;;;7.07;1.10;;;;;;;;;;5072989;28;20021;-78
2023/10/29 09:14:49;;;;;;;4.05;1.05;;;;;;;;;;5078548;28;20039;-81
2023/10/29 09:17:15;;;;;;;7.75;1.27;;;;;;;;;;5081330;28;20103;-81
2023/10/29 09:19:41;;;;;;;7.70;1.63;;;;;;;;;;5089613;28;20393;-80
2023/10/29 09:22:07;;;;;;;9.75;1.02;;;;;;;;;;5102986;28;20028;-80
2023/10/29 09:24:33;;;;;;;8.27;0.85;;;;;;;;;;5085185;28;20114;-81
2023/10/29 09:26:59;;;;;;;5.07;1.27;;;;;;;;;;5088891;28;20863;-81
2023/10/29 09:29:25;;;;;;;6.85;1.00;;;;;;;;;;5089853;28;20050;-82
2023/10/29 09:31:52;;;;;;;6.00;0.80;;;;;;;;;;5104074;28;20032;-79
2023/10/29 09:34:18;;;;;;;4.88;1.30;;;;;;;;;;5089010;28;20032;-82
2023/10/29 09:36:44;;;;;;;9.15;1.15;;;;;;;;;;5088500;28;20035;-82
2023/10/29 09:39:11;;;;;;;7.55;1.42;;;;;;;;;;5105463;28;20081;-81
2023/10/29 09:41:38;;;;;;;10.30;1.35;;;;;;;;;;5088725;28;20101;-82
2023/10/29 09:44:08;;;;;;;6.60;1.05;;;;;;;;;;5074711;28;20044;-81
2023/10/29 09:46:36;;;;;;;7.10;2.33;;;;;;;;;;5083281;28;20381;-79
2023/10/29 09:49:04;;;;;;;4.57;1.58;;;;;;;;;;5073891;28;20436;-87
2023/10/29 09:51:30;;;;;;;5.75;1.17;;;;;;;;;;5085386;28;20032;-80
2023/10/29 09:53:59;;;;;;;5.05;1.45;;;;;;;;;;5081166;28;20064;-81
2023/10/29 09:56:26;;;;;;;6.35;1.45;;;;;;;;;;5079458;28;20016;-80
2023/10/29 09:58:52;;;;;;;5.40;1.40;;;;;;;;;;5086613;28;20061;-81
2023/10/29 10:01:19;;;;;;;6.35;1.10;;;;;;;;;;5084197;28;20461;-80
2023/10/29 10:03:50;;;;;;;6.97;1.55;;;;;;;;;;5083856;28;20070;-79
2023/10/29 10:06:16;;;;;;;3.35;1.02;;;;;;;;;;5067923;28;20057;-80
2023/10/29 10:08:42;;;;;;;4.05;1.02;;;;;;;;;;5075220;28;20067;-80
2023/10/29 10:11:22;;;;;;;4.90;1.85;;;;;;;;;;5072176;28;20118;-79
2023/10/29 10:13:48;;;;;;;5.03;1.38;;;;;;;;;;5078197;28;20037;-77
2023/10/29 10:16:15;;;;;;;5.07;1.00;;;;;;;;;;5076203;28;20127;-79
2023/10/29 10:19:01;;;;;;;5.28;1.48;;;;;;;;;;5083913;28;20423;-78
2023/10/29 10:21:44;;;;;;;7.63;1.10;;;;;;;;;;5060038;28;20039;-77
2023/10/29 10:24:10;;;;;;;9.38;1.13;;;;;;;;;;5077223;28;20427;-78
2023/10/29 10:26:38;;;;;;;6.20;1.02;;;;;;;;;;5087639;28;20044;-77
2023/10/29 10:29:06;;;;;;;6.80;1.00;;;;;;;;;;5085916;28;20613;-78
2023/10/29 10:31:33;;;;;;;9.90;1.15;;;;;;;;;;5094652;28;20580;-78
2023/10/29 10:34:13;;;;;;;8.90;1.45;;;;;;;;;;5078965;28;20062;-77
2023/10/29 10:36:40;;;;;;;7.30;1.48;;;;;;;;;;5094691;28;20029;-78
2023/10/29 10:39:06;;;;;;;8.40;0.90;;;;;;;;;;5084791;28;20107;-78
2023/10/29 10:42:00;;;;;;;7.57;1.17;;;;;;;;;;5081178;28;20409;-78
2023/10/29 10:44:27;;;;;;;8.88;1.00;;;;;;;;;;5076969;28;20143;-80
2023/10/29 10:46:54;;;;;;;5.50;1.45;;;;;;;;;;5073750;28;20385;-77
2023/10/29 10:49:21;;;;;;;8.48;1.30;;;;;;;;;;5078956;28;20528;-80
2023/10/29 10:51:48;;;;;;;4.78;1.10;;;;;;;;;;5082695;28;20389;-80
2023/10/29 10:54:19;;;;;;;7.13;1.00;;;;;;;;;;5079683;28;20139;-80
2023/10/29 10:56:46;;;;;;;7.47;1.30;;;;;;;;;;5086795;28;20047;-80
2023/10/29 10:59:13;;;;;;;8.98;1.20;;;;;;;;;;5087830;28;20489;-82
2023/10/29 11:01:39;;;;;;;7.95;2.13;;;;;;;;;;5070527;28;20186;-81
2023/10/29 11:04:08;;;;;;;8.98;1.30;;;;;;;;;;5086624;28;20389;-79
2023/10/29 11:06:35;;;;;;;8.80;1.42;;;;;;;;;;5087253;28;20032;-82
2023/10/29 11:09:01;;;;;;;7.63;1.20;;;;;;;;;;5087566;28;20055;-81
2023/10/29 11:11:30;;;;;;;5.30;1.92;;;;;;;;;;5082491;28;20060;-84
2023/10/29 11:14:09;;;;;;;6.90;1.83;;;;;;;;;;5075989;28;20547;-85
2023/10/29 11:16:44;;;;;;;8.43;2.00;;;;;;;;;;5081017;28;20065;-82
2023/10/29 11:19:49;;;;;;;5.68;1.10;;;15.50;99.90;;;;;;5073172;28;20473;-80
2023/10/29 11:22:19;;;;;;;9.85;1.40;;;;;;;;;;5074773;28;20040;-80
2023/10/29 11:25:08;;;;;;;8.55;1.60;;;15.60;99.90;;;;;;5086827;28;20450;-79
2023/10/29 11:27:43;;;;;;;12.75;2.58;;;;;;;;;;5072407;28;20086;-79
2023/10/29 11:30:12;;;;;;;8.23;1.63;;;;;;;;;;5079243;28;20035;-80
2023/10/29 11:32:38;;;;;;;12.73;1.92;;;;;;;;;;5081072;28;20035;-79
2023/10/29 11:35:16;;;;;;;5.97;1.33;;;;;;;;;;5078366;28;20025;-80
2023/10/29 11:37:43;;;;;;;6.78;1.27;;;;;;;;;;5079460;28;20040;-79
2023/10/29 11:40:36;;;;;;;14.30;1.90;;;;;;;;;;5083273;28;20482;-78
2023/10/29 11:43:16;;;;;;;10.50;3.13;;;;;;;;;;5077115;28;20044;-78
2023/10/29 11:45:42;;;;;;;8.57;1.52;;;;;;;;;;5081587;28;20064;-78
2023/10/29 11:48:09;;;;;;;8.57;1.67;;;;;;;;;;5081045;28;20034;-78
2023/10/29 11:50:35;;;;;;;9.73;2.22;;;;;;;;;;5078616;28;20023;-78
2023/10/29 11:53:01;;;;;;;8.77;1.90;;;;;;;;;;5079082;28;20115;-78
2023/10/29 11:55:28;;;;;;;7.47;1.40;;;;;;;;;;5090020;28;20546;-76
2023/10/29 11:57:55;;;;;;;10.57;1.90;;;;;;;;;;5087577;28;20044;-77
2023/10/29 12:00:24;;;;;;;6.75;1.45;;;;;;;;;;5091724;28;20389;-76
2023/10/29 12:02:50;;;;;;;9.38;2.00;;;;;;;;;;5092681;28;20060;-77
2023/10/29 12:05:16;;;;;;;8.43;1.58;;;;;;;;;;5090510;28;20498;-76
2023/10/29 12:07:42;;;;;;;9.15;1.55;;;;;;;;;;5092520;28;20044;-77
2023/10/29 12:10:09;;;;;;;9.82;1.30;;;;;;;;;;5093466;28;20035;-76
2023/10/29 12:12:35;;;;;;;11.52;1.52;;;;;;;;;;5094531;28;20115;-76
2023/10/29 12:15:01;;;;;;;13.73;2.30;;;;;;;;;;5093077;28;20432;-75
2023/10/29 12:17:28;;;;;;;10.70;1.75;;;;;;;;;;5081539;28;20063;-77
2023/10/29 12:19:55;;;;;;;17.63;5.97;;;;;;;;;;5082508;28;20115;-78
2023/10/29 12:22:25;;;;;;;17.63;6.43;;;;;;;;;;5086441;28;20040;-81
2023/10/29 12:24:55;;;;;;;8.98;2.03;;;;;;;;;;5084144;28;20044;-76
2023/10/29 12:27:22;;;;;;;13.85;3.05;;;;;;;;;;5099404;28;20048;-79
2023/10/29 12:29:49;;;;;;;15.18;1.92;;;;;;;;;;5087868;28;20039;-79
2023/10/29 12:32:19;;;;;;;7.68;2.28;;;;;;;;;;5094022;28;20054;-78
2023/10/29 12:34:46;;;;;;;11.15;1.50;;;;;;;;;;5092091;28;20063;-78
2023/10/29 12:37:19;;;;;;;13.32;2.17;;;;;;;;;;5094589;28;20027;-78
2023/10/29 12:39:46;;;;;;;12.27;2.00;;;;;;;;;;5094262;28;20039;-78
2023/10/29 12:42:12;;;;;;;13.98;1.98;;;;;;;;;;5080800;28;20124;-79
2023/10/29 12:44:38;;;;;;;10.05;2.13;;;;;;;;;;5103600;28;20060;-81
2023/10/29 12:47:06;;;;;;;8.57;2.35;;;;;;;;;;5081297;28;20028;-77
2023/10/29 12:49:34;;;;;;;8.00;1.88;;;;;;;;;;5087476;28;20379;-78
2023/10/29 12:52:02;;;;;;;12.48;3.42;;;;;;;;;;5082148;28;20556;-78
2023/10/29 12:54:29;;;;;;;13.95;3.40;;;;;;;;;;5100213;27;20051;-78
2023/10/29 12:57:01;;;;;;;11.60;2.22;;;;;;;;;;5077757;28;20029;-77
2023/10/29 12:59:28;;;;;;;10.27;1.80;;;;;;;;;;5084156;28;20028;-76
2023/10/29 13:01:55;;;;;;;14.45;2.38;;;;;;;;;;5078947;28;20035;-75
2023/10/29 13:04:25;;;;;;;14.05;2.33;;;;;;;;;;5083782;28;20035;-83
2023/10/29 13:06:55;;;;;;;14.90;2.67;;;;;;;;;;5084251;28;20032;-85
2023/10/29 13:09:25;;;;;;;14.18;2.90;;;;;;;;;;5073635;28;20044;-82
2023/10/29 13:11:51;;;;;;;13.68;2.65;;;;;;;;;;5086281;28;20020;-81
2023/10/29 13:14:27;;;;;;;11.10;2.30;;;;;;;;;;5073413;28;20032;-84
2023/10/29 13:16:53;;;;;;;13.00;2.65;;;;;;;;;;5075804;28;20485;-81
2023/10/29 13:19:23;;;;;;;9.60;2.08;;;;;;;;;;5076757;28;20016;-83
2023/10/29 13:21:51;;;;;;;8.60;2.03;;;;;;;;;;5084391;28;20114;-78
2023/10/29 13:24:19;;;;;;;10.18;2.25;;;;;;;;;;5100661;28;20698;-77
2023/10/29 13:26:45;;;;;;;11.73;1.80;;;;;;;;;;5076658;28;20060;-73
2023/10/29 13:29:11;;;;;;;14.50;2.20;;;;;;;;;;5072577;28;20489;-76
2023/10/29 13:31:37;;;;;;;14.95;2.72;;;;;;;;;;5084869;28;20040;-81
2023/10/29 13:34:08;;;;;;;13.73;1.85;;;;;;;;;;5080608;28;20052;-78
2023/10/29 13:36:37;;;;;;;11.88;2.85;;;;;;;;;;5083483;28;20039;-80
2023/10/29 13:39:07;;;;;;;12.20;1.77;;;;;;;;;;5098441;28;20030;-78
2023/10/29 13:41:33;;;;;;;11.20;2.42;;;;;;;;;;5078082;28;20035;-79
2023/10/29 13:44:00;;;;;;;18.23;2.97;;;;;;;;;;5066752;28;20046;-76
2023/10/29 13:46:26;;;;;;;11.13;3.42;;;;;;;;;;5086007;28;20109;-79
2023/10/29 13:48:53;;;;;;;16.38;2.72;;;;;;;;;;5087991;28;20040;-80
2023/10/29 13:51:19;;;;;;;12.60;2.15;;;;;;;;;;5089173;28;20099;-80
2023/10/29 13:53:45;;;;;;;12.60;2.80;;;;;;;;;;5088325;28;20067;-79
2023/10/29 13:56:12;;;;;;;9.13;1.80;;;;;;;;;;5087766;28;20032;-78
2023/10/29 13:58:39;;;;;;;13.25;2.13;;;;;;;;;;5089124;28;20069;-81
2023/10/29 14:01:05;;;;;;;10.48;2.78;;;;;;;;;;5087830;28;20036;-80
2023/10/29 14:03:31;;;;;;;13.55;5.20;;;;;;;;;;5088901;28;20052;-76
2023/10/29 14:05:57;;;;;;;12.88;2.72;;;;;;;;;;5086084;28;20024;-77
2023/10/29 14:08:23;;;;;;;7.20;1.33;;;;;;;;;;5102561;28;20043;-77
2023/10/29 14:10:50;;;;;;;11.27;2.53;;;;;;;;;;5087845;28;20027;-71
2023/10/29 14:13:16;;;;;;;9.32;2.50;;;;;;;;;;5085658;28;20081;-74
2023/10/29 14:15:42;;;;;;;7.53;1.83;;;;;;;;;;5087201;28;20052;-80
2023/10/29 14:18:08;;;;;;;16.75;3.30;;;;;;;;;;5087901;28;20032;-80
2023/10/29 14:20:34;;;;;;;8.73;3.28;;;;;;;;;;5087685;28;20646;-78
2023/10/29 14:23:00;;;;;;;13.85;2.80;;;;;;;;;;5088314;28;20385;-76
2023/10/29 14:25:26;;;;;;;15.57;2.72;;;;;;;;;;5088496;28;20040;-74
2023/10/29 14:27:52;;;;;;;10.85;2.22;;;;;;;;;;5088260;28;20051;-77
2023/10/29 14:30:18;;;;;;;22.83;6.43;;;;;;;;;;5087876;28;20044;-77
2023/10/29 14:32:44;;;;;;;10.40;3.67;;;;;;;;;;5068026;28;20055;-76
2023/10/29 14:35:10;;;;;;;12.90;3.28;;;;;;;;;;5088543;28;20036;-74
2023/10/29 14:37:36;;;;;;;7.93;2.65;;;;;;;;;;5089305;28;20035;-73
2023/10/29 14:40:02;;;;;;;14.52;2.60;;;;;;;;;;5087287;28;21779;-74
2023/10/29 14:42:31;;;;;;;9.18;2.08;;;;;;;;;;5087631;28;20121;-78
2023/10/29 14:44:58;;;;;;;8.63;2.55;;;;;;;;;;5087201;28;20084;-78
2023/10/29 14:47:24;;;;;;;10.05;2.78;;;;;;;;;;5083866;28;20649;-74
2023/10/29 14:49:50;;;;;;;16.55;3.97;;;;;;;;;;5088419;28;20044;-76
2023/10/29 14:52:16;;;;;;;13.93;3.53;;;;;;;;;;5088276;28;20020;-76
2023/10/29 14:54:42;;;;;;;19.40;3.28;;;;;;;;;;5086811;28;20102;-80
2023/10/29 14:57:08;;;;;;;12.27;2.90;;;;;;;;;;5087888;28;20035;-75
2023/10/29 14:59:34;;;;;;;12.40;4.43;;;;;;;;;;5089315;28;20038;-74
2023/10/29 15:02:01;;;;;;;13.13;2.40;;;;;;;;;;5087819;28;20119;-79
2023/10/29 15:04:27;;;;;;;19.33;4.40;;;;;;;;;;5087968;28;20036;-76
2023/10/29 15:06:53;;;;;;;15.07;4.15;;;;;;;;;;5086736;28;20544;-77
2023/10/29 15:09:20;;;;;;;13.07;2.85;;;;;;;;;;5091705;28;20038;-76
2023/10/29 15:11:48;;;;;;;12.77;3.50;;;;;;;;;;5106556;28;20036;-76
2023/10/29 15:14:14;;;;;;;16.20;4.55;;;;;;;;;;5092189;28;20042;-76
2023/10/29 15:16:41;;;;;;;12.93;4.28;;;;;;;;;;5087264;28;20036;-81
2023/10/29 15:19:07;;;;;;;17.20;4.65;;;;;;;;;;5089551;28;20035;-79
2023/10/29 15:21:33;;;;;;;13.65;4.30;;;;;;;;;;5092647;28;20397;-75
2023/10/29 15:23:59;;;;;;;15.63;5.00;;;;;;;;;;5085631;28;20024;-75
2023/10/29 15:26:25;;;;;;;10.57;3.67;;;;;;;;;;5090678;28;20478;-78
2023/10/29 15:28:52;;;;;;;19.88;3.88;;;;;;;;;;5088843;28;20035;-78
2023/10/29 15:31:18;;;;;;;10.65;2.95;;;;;;;;;;5105512;27;20412;-78
2023/10/29 15:33:44;;;;;;;15.25;3.78;;;;;;;;;;5061895;28;20486;-76
2023/10/29 15:36:11;;;;;;;12.57;3.78;;;;;;;;;;5109798;28;20108;-76
2023/10/29 15:38:38;;;;;;;13.77;3.33;;;;;;;;;;5092244;28;20424;-76
2023/10/29 15:41:04;;;;;;;15.07;4.47;;;;;;;;;;5073610;28;20028;-76
2023/10/29 15:43:30;;;;;;;17.67;3.33;;;;;;;;;;5088318;28;20059;-76
2023/10/29 15:45:57;;;;;;;14.75;2.78;;;;;;;;;;5090454;28;20067;-77
2023/10/29 15:48:23;;;;;;;13.07;2.60;;;;;;;;;;5089591;28;20028;-77
2023/10/29 15:50:49;;;;;;;12.70;3.70;;;;;;;;;;5091445;28;20154;-77
2023/10/29 15:53:16;;;;;;;15.15;3.38;;;;;;;;;;5090104;28;20084;-77
2023/10/29 15:55:42;;;;;;;13.90;2.70;;;;;;;;;;5105806;28;20035;-76
2023/10/29 15:58:08;;;;;;;8.98;2.50;;;;;;;;;;5089950;28;20107;-76
2023/10/29 16:00:37;;;;;;;10.65;3.35;;;;;;;;;;5083765;28;20115;-77
2023/10/29 16:03:04;;;;;;;13.45;3.97;;;;;;;;;;5080982;28;20502;-77
2023/10/29 16:05:30;;;;;;;15.07;4.38;;;;;;;;;;5082854;28;20047;-80
2023/10/29 16:07:56;;;;;;;13.07;2.97;;;;;;;;;;5081772;28;20427;-77
2023/10/29 16:10:22;;;;;;;10.18;3.10;;;;;;;;;;5102540;28;20046;-77
2023/10/29 16:12:48;;;;;;;11.25;2.97;;;;;;;;;;5077223;28;20392;-77
2023/10/29 16:15:14;;;;;;;9.25;3.20;;;;;;;;;;5079368;28;20115;-77
2023/10/29 16:17:40;;;;;;;20.67;4.63;;;;;;;;;;5057617;28;20478;-77
2023/10/29 16:20:07;;;;;;;11.32;2.95;;;;;;;;;;5087869;28;20078;-77
2023/10/29 16:22:34;;;;;;;8.48;3.13;;;;;;;;;;5081347;28;20032;-77
2023/10/29 16:25:01;;;;;;;10.98;3.05;;;;;;;;;;5100083;28;20123;-77
2023/10/29 16:27:28;;;;;;;12.68;4.32;;;;;;;;;;5071190;28;20028;-77
2023/10/29 16:29:54;;;;;;;11.40;2.85;;;;;;;;;;5080131;28;20024;-77
2023/10/29 16:32:20;;;;;;;8.80;2.33;;;;;;;;;;5073284;28;20040;-77
2023/10/29 16:34:46;;;;;;;7.25;1.85;;;;;;;;;;5074957;28;20037;-77
2023/10/29 16:37:12;;;;;;;9.23;2.10;;;;;;;;;;5080106;28;20064;-77
2023/10/29 16:39:38;;;;;;;11.30;2.42;;;;;;;;;;5079612;28;20024;-77
2023/10/29 16:42:08;;;;;;;9.15;1.58;;;;;;;;;;5077476;28;20050;-77
2023/10/29 16:44:34;;;;;;;6.75;2.45;;;;;;;;;;5081864;28;20028;-78
2023/10/29 16:47:01;;;;;;;11.15;3.88;;;;;;;;;;5079013;28;20413;-77
2023/10/29 16:49:28;;;;;;;14.07;3.78;;;;;;;;;;5073065;28;20628;-77
2023/10/29 16:51:57;;;;;;;8.13;2.10;;;;;;;;;;5084374;28;20065;-77
2023/10/29 16:54:23;;;;;;;11.00;3.10;;;;;;;;;;5081777;28;20043;-77
2023/10/29 16:56:49;;;;;;;10.05;2.25;;;;;;;;;;5080172;28;20043;-77
2023/10/29 16:59:15;;;;;;;12.05;2.30;;;;;;;;;;5100788;28;20039;-77
2023/10/29 17:01:41;;;;;;;11.52;1.80;;;;;;;;;;5074923;28;20036;-77
2023/10/29 17:04:07;;;;;;;7.88;2.45;;;;;;;;;;5089171;28;20051;-77
2023/10/29 17:06:33;;;;;;;6.85;2.28;;;;;;;;;;5079373;28;20115;-77
2023/10/29 17:09:00;;;;;;;9.95;2.47;;;;;;;;;;5078614;28;20035;-77
2023/10/29 17:11:27;;;;;;;6.38;2.53;;;;;;;;;;5077755;28;20025;-77
2023/10/29 17:13:53;;;;;;;13.60;3.78;;;;;;;;;;5099256;28;20036;-77
2023/10/29 17:16:19;;;;;;;7.28;2.20;;;;;;;;;;5078061;28;20385;-77
2023/10/29 17:18:45;;;;;;;7.85;2.15;;;;;;;;;;5081273;28;20081;-77
2023/10/29 17:21:14;;;;;;;7.03;1.85;;;;;;;;;;5085302;28;20424;-77
2023/10/29 17:23:41;;;;;;;7.55;1.65;;;;;;;;;;5074911;28;20043;-75
2023/10/29 17:26:17;;;;;;;9.93;1.90;;;;;;;;;;5075479;28;20025;-76
2023/10/29 17:28:44;;;;;;;10.13;1.85;;;;;;;;;;5073304;28;20051;-77
2023/10/29 17:31:13;;;;;;;9.75;2.42;;;;;;;;;;5087639;28;20031;-77
2023/10/29 17:33:40;;;;;;;9.68;3.15;;;;;;;;;;5091384;28;20060;-77
2023/10/29 17:36:09;;;;;;;8.98;2.42;;;;;;;;;;5088676;28;20040;-79
2023/10/29 17:38:36;;;;;;;12.90;2.72;;;;;;;;;;5088469;28;20540;-79
2023/10/29 17:41:02;;;;;;;7.55;1.92;;;;;;;;;;5085535;28;20081;-77
2023/10/29 17:43:28;;;;;;;8.20;2.40;;;;;;;;;;5087423;28;20103;-79
2023/10/29 17:45:56;;;;;;;6.05;2.10;;;;;;;;;;5085969;28;20152;-79
2023/10/29 17:48:22;;;;;;;9.50;3.00;;;;;;;;;;5047972;28;20029;-79
2023/10/29 17:50:57;;;;;;;26.83;16.15;;;;;;;;;;5051430;28;20041;-84
2023/10/29 17:53:27;;;;;;;15.80;4.03;;;;;;;;;;5050623;28;20100;-77
2023/10/29 17:55:53;;;;;;;11.18;2.28;;;;;;;;;;5053842;28;20036;-78
2023/10/29 17:58:20;;;;;;;11.32;2.50;;;;;;;;;;5061859;28;20497;-76
2023/10/29 18:00:46;;;;;;;11.93;2.40;;;;;;;;;;5056144;28;20478;-77
2023/10/29 18:03:12;;;;;;;9.15;2.38;;;;;;;;;;5052806;28;20045;-77
2023/10/29 18:05:38;;;;;;;5.45;2.38;;;;;;;;;;5035909;28;20116;-76
2023/10/29 18:08:07;;;;;;;11.48;3.00;;;;;;;;;;5050777;28;20475;-77
2023/10/29 18:10:34;;;;;;;8.02;2.90;;;;;;;;;;5050792;28;20027;-77
2023/10/29 18:13:00;;;;;;;8.55;2.63;;;;;;;;;;5048369;28;20576;-78
2023/10/29 18:15:26;;;;;;;6.28;2.28;;;;;;;;;;5045909;28;20061;-77
2023/10/29 18:17:52;;;;;;;10.57;3.50;;;;;;;;;;5043051;28;20080;-77
2023/10/29 18:20:18;;;;;;;9.65;2.58;;;;;;;;;;5046151;28;20037;-77
2023/10/29 18:22:44;;;;;;;6.55;1.52;;;;;;;;;;5045871;28;20075;-77
2023/10/29 18:25:10;;;;;;;6.00;2.08;;;;;;;;;;5046085;28;20501;-77
2023/10/29 18:27:38;;;;;;;9.32;1.80;;;;;;;;;;5048435;28;20036;-77
2023/10/29 18:30:04;;;;;;;6.70;3.03;;;;;;;;;;5046921;28;20497;-77
2023/10/29 18:32:30;;;;;;;7.00;2.55;;;;;;;;;;5039494;28;20021;-77
2023/10/29 18:34:56;;;;;;;8.85;3.95;;;;;;;;;;5035082;28;20041;-77
2023/10/29 18:37:23;;;;;;;7.28;2.25;;;;;;;;;;5040484;28;20045;-77
2023/10/29 18:39:49;;;;;;;6.30;2.13;;;;;;;;;;5038199;28;20029;-77
2023/10/29 18:42:15;;;;;;;6.30;2.50;;;;;;;;;;5039146;28;20033;-77
2023/10/29 18:44:41;;;;;;;4.32;1.38;;;;;;;;;;5049870;28;20071;-77
2023/10/29 18:47:09;;;;;;;4.70;1.65;;;;;;;;;;5080749;28;20453;-77
2023/10/29 18:49:35;;;;;;;4.72;2.25;;;;;;;;;;5073873;28;20038;-80
2023/10/29 18:52:02;;;;;;;12.45;4.22;;;;;;;;;;5082886;28;20155;-75
2023/10/29 18:54:29;;;;;;;5.72;1.30;;;;;;;;;;5067791;28;20055;-79
2023/10/29 18:56:55;;;;;;;3.88;0.80;;;;;;;;;;5075959;28;20062;-77
2023/10/29 18:59:22;;;;;;;4.53;0.95;;;;;;;;;;5066790;28;20039;-76
2023/10/29 19:01:48;;;;;;;2.83;0.77;;;;;;;;;;5083034;28;20158;-76
2023/10/29 19:04:14;;;;;;;3.75;1.30;;;;;;;;;;5084253;28;20036;-77
2023/10/29 19:06:41;;;;;;;5.45;1.20;;;;;;;;;;5071057;28;20079;-76
2023/10/29 19:09:09;;;;;;;5.88;1.00;;;;;;;;;;5060227;28;20035;-76
2023/10/29 19:11:35;;;;;;;3.83;1.38;;;;;;;;;;5081356;28;20131;-78
2023/10/29 19:14:02;;;;;;;3.30;1.05;;;;;;;;;;5079118;28;20020;-78
2023/10/29 19:16:28;;;;;;;3.75;0.80;;;;;;;;;;5079196;28;20036;-78
2023/10/29 19:18:54;;;;;;;4.63;1.30;;;;;;;;;;5071923;28;20039;-77
2023/10/29 19:21:21;;;;;;;5.68;1.40;;;;;;;;;;5077514;28;20508;-77
2023/10/29 19:23:47;;;;;;;4.88;2.30;;;;;;;;;;5077441;28;20031;-79
2023/10/29 19:26:13;;;;;;;5.57;0.93;;;;;;;;;;5078572;28;20039;-77
2023/10/29 19:28:39;;;;;;;4.40;1.13;;;;;;;;;;5095927;28;20044;-77
2023/10/29 19:31:08;;;;;;;4.13;0.50;;;;;;;;;;5076749;28;20041;-77
2023/10/29 19:33:35;;;;;;;8.68;1.08;;;;;;;;;;5079434;28;20035;-78
2023/10/29 19:36:01;;;;;;;4.10;0.82;;;;;;;;;;5080678;28;20032;-78
2023/10/29 19:38:27;;;;;;;3.13;0.50;;;;;;;;;;5056850;28;20469;-79
2023/10/29 19:40:59;;;;;;;3.47;1.38;;;;;;;;;;5082608;28;20075;-78
2023/10/29 19:43:27;;;;;;;3.80;0.77;;;;;;;;;;5076417;28;20502;-77
2023/10/29 19:45:56;;;;;;;8.32;2.63;;;;;;;;;;5078450;28;20165;-83
2023/10/29 19:48:23;;;;;;;4.32;0.98;;;;;;;;;;5082852;28;20380;-78
2023/10/29 19:50:56;;;;;;;3.65;0.85;;;;;;;;;;5078662;28;20032;-79
2023/10/29 19:53:22;;;;;;;;;;;;;;;;;;5087002;28;20054;-77
2023/10/29 19:55:48;;;;;;;5.00;1.25;;;;;;;;;;5091372;28;19917;-80
2023/10/29 19:58:14;;;;;;;4.50;1.30;;;;;;;;;;5082329;28;20027;-78
2023/10/29 20:00:40;;;;;;;7.05;1.65;;;;;;;;;;5100189;27;20031;-76
2023/10/29 20:03:07;;;;;;;3.75;1.00;;;;;;;;;;5106039;27;20123;-81
2023/10/29 20:05:36;;;;;;;8.15;1.60;;;;;;;;;;5083395;28;20044;-80
2023/10/29 20:08:03;;;;;;;7.00;1.65;;;;;;;;;;5091170;28;20494;-80
2023/10/29 20:10:29;;;;;;;11.27;2.25;;;;;;;;;;5093077;28;20028;-79
2023/10/29 20:12:55;;;;;;;6.90;1.90;;;;;;;;;;5075816;28;20047;-79
2023/10/29 20:15:21;;;;;;;7.65;1.20;;;;;;;;;;5093193;28;20067;-80
2023/10/29 20:17:47;;;;;;;11.85;1.55;;;;;;;;;;5093997;28;20385;-81
2023/10/29 20:20:14;;;;;;;7.57;1.45;;;;;;;;;;5091292;28;20032;-75
2023/10/29 20:22:40;;;;;;;17.13;2.63;;;;;;;;;;5093881;28;20028;-75
2023/10/29 20:25:07;;;;;;;8.90;1.63;;;;;;;;;;5072951;28;20032;-75
2023/10/29 20:27:35;;;;;;;8.48;1.48;;;;;;;;;;5089711;28;20390;-81
2023/10/29 20:30:01;;;;;;;11.63;1.48;;;;;;;;;;5092442;28;20028;-81
2023/10/29 20:32:27;;;;;;;9.55;1.80;;;;;;;;;;5092963;28;20024;-81
2023/10/29 20:34:53;;;;;;;10.13;1.83;;;;;;;;;;5093567;28;20047;-80
2023/10/29 20:37:19;;;;;;;11.00;2.33;;;;;;;;;;5075535;28;20025;-81
2023/10/29 20:39:45;;;;;;;11.60;2.05;;;;;;;;;;5093071;28;20063;-80
2023/10/29 20:42:11;;;;;;;7.60;1.27;;;;;;;;;;5095013;28;20485;-79
2023/10/29 20:44:39;;;;;;;15.88;2.63;;;;;;;;;;5089147;28;20056;-80
2023/10/29 20:47:07;;;;;;;9.68;2.33;;;;;;;;;;5083805;28;20035;-79
2023/10/29 20:49:33;;;;;;;7.18;1.90;;;;;;;;;;5087242;28;20099;-79
2023/10/29 20:51:59;;;;;;;12.65;1.98;;;;;;;;;;5055207;28;20090;-79
2023/10/29 20:54:25;;;;;;;12.25;2.65;;;;;;;;;;5075963;28;20032;-79
2023/10/29 20:56:51;;;;;;;10.98;1.60;;;;;;;;;;5093660;28;20060;-79
2023/10/29 20:59:19;;;;;;;9.38;2.38;;;;;;;;;;5087745;28;20031;-79
2023/10/29 21:01:45;;;;;;;17.20;3.33;;;;;;;;;;5090128;28;20462;-79
2023/10/29 21:04:11;;;;;;;10.75;1.65;;;;;;;;;;5092261;28;20032;-80
2023/10/29 21:06:37;;;;;;;15.55;1.60;;;;;;;;;;5091707;28;20043;-79
2023/10/29 21:09:10;;;;;;;10.52;2.60;;;;;;;;;;5089111;28;20036;-80
2023/10/29 21:11:36;;;;;;;14.52;2.47;;;;;;;;;;5106863;28;20111;-78
2023/10/29 21:14:02;;;;;;;11.15;2.20;;;;;;;;;;5092873;28;20380;-78
2023/10/29 21:16:29;;;;;;;13.13;2.47;;;;;;;;;;5086550;28;20389;-80
2023/10/29 21:18:55;;;;;;;14.35;2.53;;;;;;;;;;5075436;28;20020;-80
2023/10/29 21:21:22;;;;;;;11.07;2.97;;;;;;;;;;5083023;28;20509;-80
2023/10/29 21:23:48;;;;;;;13.35;2.65;;;;;;;;;;5085726;28;20032;-79